Time;durP1;ratioP1;P1;durP2;ratioP2;P2;SDS_P1;SDS_P2;PMS_P1;PMS_P2;Temp;Humidity;BMP_temperature;BMP_pressure;BME280_temperature;BME280_humidity;BME280_pressure;Samples;Min_cycle;Max_cycle;Signal;HPM_P1;HPM_P2
2022/10/06 00:02:16;;;;;;;;;;;20.60;1.00;;;;;;5034989;28;19928;-54
2022/10/06 00:04:43;;;;;;;;;;;20.50;1.00;;;;;;5035082;28;20338;-56
2022/10/06 00:07:10;;;;;;;;;;;20.60;1.00;;;;;;5035704;28;20397;-53
2022/10/06 00:09:37;;;;;;;;;;;20.60;1.00;;;;;;5035673;28;19921;-53
2022/10/06 00:12:04;;;;;;;;;;;20.60;1.00;;;;;;5035299;28;20305;-53
2022/10/06 00:14:30;;;;;;;;;;;20.60;1.00;;;;;;5035362;28;20425;-54
2022/10/06 00:16:57;;;;;;;;;;;20.60;1.00;;;;;;5035682;28;19974;-50
2022/10/06 00:19:24;;;;;;;;;;;20.60;1.00;;;;;;5034996;28;19928;-53
2022/10/06 00:21:51;;;;;;;;;;;20.60;1.00;;;;;;5034936;28;19979;-51
2022/10/06 00:24:18;;;;;;;;;;;20.60;1.00;;;;;;5035396;28;20425;-54
2022/10/06 00:26:46;;;;;;;;;;;20.50;1.00;;;;;;5034847;28;19975;-52
2022/10/06 00:29:13;;;;;;;;;;;20.50;1.00;;;;;;5034645;28;20272;-51
2022/10/06 00:31:40;;;;;;;;;;;20.50;1.00;;;;;;5034516;28;19921;-54
2022/10/06 00:34:07;;;;;;;;;;;20.50;1.00;;;;;;5033856;28;19920;-52
2022/10/06 00:36:34;;;;;;;;;;;20.50;1.00;;;;;;5035300;28;20343;-52
2022/10/06 00:39:00;;;;;;;;;;;20.50;1.00;;;;;;5033451;28;19932;-52
2022/10/06 00:41:27;;;;;;;;;;;20.50;1.00;;;;;;5034490;28;19921;-50
2022/10/06 00:43:55;;;;;;;;;;;20.40;1.00;;;;;;5034409;28;20043;-51
2022/10/06 00:46:23;;;;;;;;;;;20.50;1.00;;;;;;5034582;28;19928;-55
2022/10/06 00:48:52;;;;;;;;;;;20.50;1.00;;;;;;5033034;28;19990;-55
2022/10/06 00:51:19;;;;;;;;;;;20.40;1.00;;;;;;5034859;28;19931;-48
2022/10/06 00:53:47;;;;;;;;;;;20.40;1.00;;;;;;5033004;28;20259;-55
2022/10/06 00:56:14;;;;;;;;;;;20.30;1.00;;;;;;5034004;28;20390;-52
2022/10/06 00:58:40;;;;;;;;;;;20.30;1.00;;;;;;5034224;28;20385;-53
2022/10/06 01:01:08;;;;;;;;;;;20.20;1.00;;;;;;5034729;28;19921;-53
2022/10/06 01:03:37;;;;;;;;;;;20.20;1.00;;;;;;5032631;28;20347;-51
2022/10/06 01:06:04;;;;;;;;;;;20.20;1.00;;;;;;5033093;28;19975;-51
2022/10/06 01:08:31;;;;;;;;;;;20.20;1.00;;;;;;5034298;28;19921;-52
2022/10/06 01:10:58;;;;;;;;;;;20.10;1.00;;;;;;5034306;28;19975;-55
2022/10/06 01:13:29;;;;;;;;;;;20.10;1.00;;;;;;5033994;28;19975;-54
2022/10/06 01:15:59;;;;;;;;;;;20.10;1.00;;;;;;5034358;28;19921;-48
2022/10/06 01:18:28;;;;;;;;;;;20.10;1.00;;;;;;5034121;28;19924;-55
2022/10/06 01:21:00;;;;;;;;;;;20.10;1.00;;;;;;5032691;28;19921;-52
2022/10/06 01:23:26;;;;;;;;;;;20.10;1.00;;;;;;5032720;28;19958;-52
2022/10/06 01:25:53;;;;;;;;;;;20.10;1.00;;;;;;5034076;28;20011;-55
2022/10/06 01:28:20;;;;;;;;;;;20.10;1.00;;;;;;5032782;28;19990;-52
2022/10/06 01:30:53;;;;;;;;;;;20.10;1.00;;;;;;5032953;28;19967;-53
2022/10/06 01:33:22;;;;;;;;;;;20.00;1.00;;;;;;5032272;28;20013;-55
2022/10/06 01:35:50;;;;;;;;;;;20.00;1.00;;;;;;5032452;28;19925;-52
2022/10/06 01:38:18;;;;;;;;;;;20.00;1.00;;;;;;5033763;28;19975;-52
2022/10/06 01:40:49;;;;;;;;;;;20.00;1.00;;;;;;5032426;28;19921;-53
2022/10/06 01:43:16;;;;;;;;;;;20.00;1.00;;;;;;5033221;28;19921;-54
2022/10/06 01:45:43;;;;;;;;;;;20.00;1.00;;;;;;5037465;28;19928;-53
2022/10/06 01:48:10;;;;;;;;;;;20.00;1.00;;;;;;5039093;28;19929;-50
2022/10/06 01:50:39;;;;;;;;;;;20.00;1.00;;;;;;5038972;28;19928;-54
2022/10/06 01:53:06;;;;;;;;;;;20.00;1.00;;;;;;5038586;28;19921;-50
2022/10/06 01:55:32;;;;;;;;;;;20.00;1.00;;;;;;5039422;28;19921;-53
2022/10/06 01:58:00;;;;;;;;;;;20.00;1.00;;;;;;5039270;28;19940;-54
2022/10/06 02:00:27;;;;;;;;;;;19.90;1.00;;;;;;5038876;28;19988;-56
2022/10/06 02:02:56;;;;;;;;;;;19.90;1.00;;;;;;5040043;28;19921;-54
2022/10/06 02:05:25;;;;;;;;;;;19.90;1.00;;;;;;5040203;28;19924;-53
2022/10/06 02:07:52;;;;;;;;;;;19.90;1.00;;;;;;5038895;28;19948;-55
2022/10/06 02:10:19;;;;;;;;;;;20.00;1.00;;;;;;5039343;28;19925;-52
2022/10/06 02:12:50;;;;;;;;;;;19.90;1.00;;;;;;5038799;28;19921;-52
2022/10/06 02:15:19;;;;;;;;;;;19.90;1.00;;;;;;5038828;28;20386;-55
2022/10/06 02:17:46;;;;;;;;;;;19.90;1.00;;;;;;5038953;28;20379;-55
2022/10/06 02:20:14;;;;;;;;;;;19.90;1.00;;;;;;5038747;28;19921;-50
2022/10/06 02:22:42;;;;;;;;;;;19.90;1.00;;;;;;5039575;28;19971;-49
2022/10/06 02:25:10;;;;;;;;;;;19.90;1.00;;;;;;5038469;28;19956;-53
2022/10/06 02:27:37;;;;;;;;;;;19.90;1.00;;;;;;5039894;28;20000;-52
2022/10/06 02:30:06;;;;;;;;;;;19.90;1.00;;;;;;5038473;28;19943;-52
2022/10/06 02:32:37;;;;;;;;;;;19.80;1.00;;;;;;5038392;28;19959;-54
2022/10/06 02:35:05;;;;;;;;;;;19.80;1.00;;;;;;5038670;28;19921;-53
2022/10/06 02:37:33;;;;;;;;;;;19.90;1.00;;;;;;5038700;28;20321;-52
2022/10/06 02:40:01;;;;;;;;;;;19.80;1.00;;;;;;5038577;28;19920;-51
2022/10/06 02:42:29;;;;;;;;;;;19.80;1.00;;;;;;5038307;28;19925;-49
2022/10/06 02:44:57;;;;;;;;;;;19.80;1.00;;;;;;5038343;28;19925;-54
2022/10/06 02:47:24;;;;;;;;;;;19.80;1.00;;;;;;5038486;28;19921;-51
2022/10/06 02:49:52;;;;;;;;;;;19.80;1.00;;;;;;5038680;28;19920;-55
2022/10/06 02:52:19;;;;;;;;;;;19.80;1.00;;;;;;5038700;28;19921;-51
2022/10/06 02:54:47;;;;;;;;;;;19.80;1.00;;;;;;5038279;28;20279;-53
2022/10/06 02:57:14;;;;;;;;;;;19.80;1.00;;;;;;5035970;28;19920;-56
2022/10/06 02:59:41;;;;;;;;;;;19.70;1.00;;;;;;5035570;28;19921;-53
2022/10/06 03:02:08;;;;;;;;;;;19.80;1.00;;;;;;5035147;28;19920;-53
2022/10/06 03:04:35;;;;;;;;;;;19.70;1.00;;;;;;5035438;28;20393;-56
2022/10/06 03:07:02;;;;;;;;;;;19.70;1.00;;;;;;5035160;28;20334;-54
2022/10/06 03:09:34;;;;;;;;;;;19.80;1.00;;;;;;5035807;28;19957;-57
2022/10/06 03:12:01;;;;;;;;;;;19.70;1.00;;;;;;5036176;28;19927;-50
2022/10/06 03:14:34;;;;;;;;;;;19.70;1.00;;;;;;5035081;28;19927;-49
2022/10/06 03:17:02;;;;;;;;;;;19.70;1.00;;;;;;5035061;28;19955;-54
2022/10/06 03:19:30;;;;;;;;;;;19.70;1.00;;;;;;5035357;28;19953;-54
2022/10/06 03:21:57;;;;;;;;;;;19.70;1.00;;;;;;5034462;28;19925;-52
2022/10/06 03:24:33;;;;;;;;;;;19.70;1.00;;;;;;5034919;28;20405;-55
2022/10/06 03:27:00;;;;;;;;;;;19.70;1.00;;;;;;5034766;28;19952;-54
2022/10/06 03:29:29;;;;;;;;;;;19.60;1.00;;;;;;5034766;28;20023;-52
2022/10/06 03:31:57;;;;;;;;;;;19.70;1.00;;;;;;5034949;28;20322;-52
2022/10/06 03:34:24;;;;;;;;;;;19.70;1.00;;;;;;5034738;28;19921;-57
2022/10/06 03:36:53;;;;;;;;;;;19.70;1.00;;;;;;5034275;28;19928;-51
2022/10/06 03:39:22;;;;;;;;;;;19.70;1.00;;;;;;5034509;28;20352;-49
2022/10/06 03:41:49;;;;;;;;;;;19.60;1.00;;;;;;5034117;28;20399;-54
2022/10/06 03:44:16;;;;;;;;;;;19.70;1.00;;;;;;5034271;28;19928;-56
2022/10/06 03:46:43;;;;;;;;;;;19.60;1.00;;;;;;5035606;28;20290;-50
2022/10/06 03:49:10;;;;;;;;;;;19.70;1.00;;;;;;5035904;28;19968;-54
2022/10/06 03:51:38;;;;;;;;;;;19.60;1.00;;;;;;5034233;28;19971;-54
2022/10/06 03:54:09;;;;;;;;;;;19.60;1.00;;;;;;5035985;28;19952;-52
2022/10/06 03:56:38;;;;;;;;;;;19.60;1.00;;;;;;5034059;28;19949;-53
2022/10/06 03:59:08;;;;;;;;;;;19.60;1.00;;;;;;5034134;28;19920;-51
2022/10/06 04:01:38;;;;;;;;;;;19.60;1.00;;;;;;5035561;28;19951;-49
2022/10/06 04:04:07;;;;;;;;;;;19.60;1.00;;;;;;5034633;28;20442;-50
2022/10/06 04:06:35;;;;;;;;;;;19.60;1.00;;;;;;5034270;28;19925;-50
2022/10/06 04:09:04;;;;;;;;;;;19.60;1.00;;;;;;5033362;28;19921;-52
2022/10/06 04:11:33;;;;;;;;;;;19.60;1.00;;;;;;5033790;28;19921;-52
2022/10/06 04:14:01;;;;;;;;;;;19.60;1.00;;;;;;5033053;28;19927;-55
2022/10/06 04:16:32;;;;;;;;;;;19.50;1.00;;;;;;5025155;28;19921;-53
2022/10/06 04:19:02;;;;;;;;;;;19.60;1.00;;;;;;5021628;28;19941;-54
2022/10/06 04:21:31;;;;;;;;;;;19.60;1.00;;;;;;5018710;28;19925;-52
2022/10/06 04:23:59;;;;;;;;;;;19.60;1.00;;;;;;5015095;28;19921;-51
2022/10/06 04:26:27;;;;;;;;;;;19.50;1.00;;;;;;5015114;28;19921;-51
2022/10/06 04:28:54;;;;;;;;;;;19.50;1.00;;;;;;5013934;28;19922;-53
2022/10/06 04:31:22;;;;;;;;;;;19.50;1.00;;;;;;5015109;28;20414;-49
2022/10/06 04:33:50;;;;;;;;;;;19.60;1.00;;;;;;5013901;28;20244;-51
2022/10/06 04:36:21;;;;;;;;;;;19.60;1.00;;;;;;5013801;28;19921;-52
2022/10/06 04:38:52;;;;;;;;;;;19.60;1.00;;;;;;5014975;28;19927;-51
2022/10/06 04:41:19;;;;;;;;;;;19.80;1.00;;;;;;5013769;28;20016;-54
2022/10/06 04:43:47;;;;;;;;;;;19.80;1.00;;;;;;5014457;28;20290;-53
2022/10/06 04:46:14;;;;;;;;;;;19.90;1.00;;;;;;5013389;28;19968;-51
2022/10/06 04:49:02;;;;;;;;;;;19.90;1.00;;;;;;5013780;28;19932;-50
2022/10/06 04:51:31;;;;;;;;;;;19.80;1.00;;;;;;5013076;28;20001;-54
2022/10/06 04:53:59;;;;;;;;;;;19.60;1.00;;;;;;5013163;28;20363;-55
2022/10/06 04:56:29;;;;;;;;;;;19.60;1.00;;;;;;5012744;28;19921;-46
2022/10/06 04:58:59;;;;;;;;;;;19.50;1.00;;;;;;5013238;28;19922;-53
2022/10/06 05:01:32;;;;;;;;;;;19.40;1.00;;;;;;5029783;28;19921;-52
2022/10/06 05:04:01;;;;;;;;;;;19.40;1.00;;;;;;5013188;28;20367;-54
2022/10/06 05:06:34;;;;;;;;;;;19.40;1.00;;;;;;5013363;28;20016;-55
2022/10/06 05:09:03;;;;;;;;;;;19.40;1.00;;;;;;5013037;28;19925;-55
2022/10/06 05:11:31;;;;;;;;;;;19.40;1.00;;;;;;5013516;28;20274;-52
2022/10/06 05:14:00;;;;;;;;;;;19.70;1.00;;;;;;5012990;28;19925;-49
2022/10/06 05:16:29;;;;;;;;;;;19.90;1.00;;;;;;5029537;28;19921;-56
2022/10/06 05:18:56;;;;;;;;;;;19.90;1.00;;;;;;5012876;28;19929;-53
2022/10/06 05:21:25;;;;;;;;;;;19.90;1.00;;;;;;5029035;28;19928;-52
2022/10/06 05:23:52;;;;;;;;;;;19.90;1.00;;;;;;5012881;28;19948;-50
2022/10/06 05:26:20;;;;;;;;;;;19.90;1.00;;;;;;5012835;28;19968;-51
2022/10/06 05:28:48;;;;;;;;;;;19.90;1.00;;;;;;5012481;28;19925;-49
2022/10/06 05:31:16;;;;;;;;;;;19.80;1.00;;;;;;5031799;28;19921;-54
2022/10/06 05:33:44;;;;;;;;;;;19.80;1.00;;;;;;5033660;28;19952;-53
2022/10/06 05:36:15;;;;;;;;;;;19.70;1.00;;;;;;5033032;28;19925;-55
2022/10/06 05:38:43;;;;;;;;;;;19.70;1.00;;;;;;5031922;28;20337;-52
2022/10/06 05:41:14;;;;;;;;;;;19.60;1.00;;;;;;5031006;28;20042;-54
2022/10/06 05:43:41;;;;;;;;;;;19.60;1.00;;;;;;5024482;28;20333;-54
2022/10/06 05:46:19;;;;;;;;;;;19.60;1.00;;;;;;5013903;28;19922;-55
2022/10/06 05:48:47;;;;;;;;;;;19.60;1.00;;;;;;5014152;28;19928;-47
2022/10/06 05:51:18;;;;;;;;;;;19.50;1.00;;;;;;5021294;28;20008;-51
2022/10/06 05:53:45;;;;;;;;;;;19.50;1.00;;;;;;5014100;28;19929;-50
2022/10/06 05:56:14;;;;;;;;;;;19.40;1.00;;;;;;5043071;28;19921;-51
2022/10/06 05:58:43;;;;;;;;;;;19.30;1.00;;;;;;5021323;28;19983;-53
2022/10/06 06:01:15;;;;;;;;;;;19.30;1.00;;;;;;5022652;28;19921;-52
2022/10/06 06:03:46;;;;;;;;;;;19.30;1.00;;;;;;5022140;28;20338;-54
2022/10/06 06:06:20;;;;;;;;;;;19.30;1.00;;;;;;5037167;28;19921;-49
2022/10/06 06:08:50;;;;;;;;;;;19.20;1.00;;;;;;5023014;28;19921;-52
2022/10/06 06:11:17;;;;;;;;;;;19.20;1.00;;;;;;5033348;28;19920;-53
2022/10/06 06:13:44;;;;;;;;;;;19.20;1.00;;;;;;5051675;28;19927;-54
2022/10/06 06:16:14;;;;;;;;;;;19.20;1.00;;;;;;5051585;28;19921;-51
2022/10/06 06:18:41;;;;;;;;;;;19.20;1.00;;;;;;5053402;28;19929;-56
2022/10/06 06:21:10;;;;;;;;;;;19.20;1.00;;;;;;5052024;28;20255;-53
2022/10/06 06:23:43;;;;;;;;;;;19.20;1.00;;;;;;5051520;28;20356;-52
2022/10/06 06:26:23;;;;;;;;;;;19.10;1.00;;;;;;5051312;28;20020;-48
2022/10/06 06:28:51;;;;;;;;;;;19.10;1.00;;;;;;5051978;28;19928;-49
2022/10/06 06:31:22;;;;;;;;;;;19.10;1.00;;;;;;5051898;28;19925;-49
2022/10/06 06:33:51;;;;;;;;;;;19.10;1.00;;;;;;5055257;28;20270;-53
2022/10/06 06:36:23;;;;;;;;;;;19.20;1.00;;;;;;5053692;28;19927;-52
2022/10/06 06:38:57;;;;;;;;;;;19.50;1.00;;;;;;5035732;28;19949;-57
2022/10/06 06:41:27;;;;;;;;;;;19.70;1.00;;;;;;5031393;28;19927;-58
2022/10/06 06:44:02;;;;;;;;;;;19.80;1.00;;;;;;5016952;28;19975;-56
2022/10/06 06:46:35;;;;;;;;;;;19.80;1.00;;;;;;5016167;28;20032;-51
2022/10/06 06:49:10;;;;;;;;;;;19.70;1.00;;;;;;5028752;28;19925;-55
2022/10/06 06:51:48;;;;;;;;;;;19.60;1.00;;;;;;5034241;28;19975;-53
2022/10/06 06:54:17;;;;;;;;;;;19.60;1.00;;;;;;5035758;28;20316;-53
2022/10/06 06:56:48;;;;;;;;;;;19.50;1.00;;;;;;5034642;28;19921;-57
2022/10/06 06:59:19;;;;;;;;;;;19.40;1.00;;;;;;5034737;28;19927;-50
2022/10/06 07:01:48;;;;;;;;;;;19.40;1.00;;;;;;5034976;28;19928;-53
2022/10/06 07:04:18;;;;;;;;;;;19.30;1.00;;;;;;5034867;28;19920;-50
2022/10/06 07:06:52;;;;;;;;;;;19.20;1.00;;;;;;5035083;28;19960;-53
2022/10/06 07:09:19;;;;;;;;;;;19.10;1.00;;;;;;5035237;28;19935;-50
2022/10/06 07:11:46;;;;;;;;;;;19.10;1.00;;;;;;5036281;28;19983;-55
2022/10/06 07:14:17;;;;;;;;;;;19.10;1.00;;;;;;5035332;28;19971;-53
2022/10/06 07:25:05;;;;;;;;;;;19.00;1.00;;;;;;5034887;28;19921;-49
2022/10/06 07:25:14;;;;;;;;;;;19.00;1.00;;;;;;5034430;28;20298;-56
2022/10/06 07:27:49;;;;;;;;;;;19.00;1.00;;;;;;5033278;28;20290;-55
2022/10/06 07:30:25;;;;;;;;;;;19.00;1.00;;;;;;5035885;28;19927;-51
2022/10/06 07:32:59;;;;;;;;;;;19.00;1.00;;;;;;5034286;28;19921;-56
2022/10/06 07:35:26;;;;;;;;;;;19.00;1.00;;;;;;5034261;28;20408;-52
2022/10/06 07:37:53;;;;;;;;;;;19.00;1.00;;;;;;5035698;28;19921;-55
2022/10/06 07:40:22;;;;;;;;;;;19.00;1.00;;;;;;5034311;28;19925;-50
2022/10/06 07:42:52;;;;;;;;;;;19.00;1.00;;;;;;5033918;28;19948;-54
2022/10/06 07:45:44;;;;;;;;;;;19.00;1.00;;;;;;5034152;28;20008;-52
2022/10/06 07:48:19;;;;;;;;;;;19.00;1.00;;;;;;5034461;28;20232;-56
2022/10/06 07:50:51;;;;;;;;;;;19.00;1.00;;;;;;5034228;28;20438;-56
2022/10/06 07:53:27;;;;;;;;;;;19.00;1.00;;;;;;5033871;28;19928;-54
2022/10/06 07:56:05;;;;;;;;;;;19.00;1.00;;;;;;5034128;28;19921;-54
2022/10/06 07:58:37;;;;;;;;;;;19.00;1.00;;;;;;5034540;28;19925;-55
2022/10/06 08:01:05;;;;;;;;;;;19.00;1.00;;;;;;5034200;28;19928;-55
2022/10/06 08:03:32;;;;;;;;;;;19.00;1.00;;;;;;5035230;28;20067;-56
2022/10/06 08:06:00;;;;;;;;;;;19.00;1.00;;;;;;5035039;28;19944;-60
2022/10/06 08:08:31;;;;;;;;;;;19.00;1.00;;;;;;5035767;28;20363;-59
2022/10/06 08:10:58;;;;;;;;;;;19.10;1.00;;;;;;5034983;28;19968;-55
2022/10/06 08:13:27;;;;;;;;;;;19.10;1.00;;;;;;5034859;28;19967;-56
2022/10/06 08:15:55;;;;;;;;;;;19.10;1.00;;;;;;5034856;28;19921;-55
2022/10/06 08:18:24;;;;;;;;;;;19.10;1.00;;;;;;5035055;28;20294;-53
2022/10/06 08:21:15;;;;;;;;;;;19.20;1.00;;;;;;5033780;28;20263;-55
2022/10/06 08:23:43;;;;;;;;;;;19.30;1.00;;;;;;5034538;28;19921;-49
2022/10/06 08:26:10;;;;;;;;;;;19.40;1.00;;;;;;5035034;28;19920;-54
2022/10/06 08:28:37;;;;;;;;;;;19.50;1.00;;;;;;5034628;28;19921;-55
2022/10/06 08:31:05;;;;;;;;;;;19.60;1.00;;;;;;5034653;28;20405;-58
2022/10/06 08:33:34;;;;;;;;;;;19.70;1.00;;;;;;5034887;28;19921;-53
2022/10/06 08:36:03;;;;;;;;;;;19.70;1.00;;;;;;5034438;28;20448;-52
2022/10/06 08:38:30;;;;;;;;;;;19.90;1.00;;;;;;5034658;28;19921;-57
2022/10/06 08:40:57;;;;;;;;;;;19.80;1.00;;;;;;5034581;28;19921;-53
2022/10/06 08:43:24;;;;;;;;;;;19.90;1.00;;;;;;5034678;28;20027;-52
2022/10/06 08:45:52;;;;;;;;;;;19.90;1.00;;;;;;5034215;28;19928;-55
2022/10/06 08:48:27;;;;;;;;;;;19.90;1.00;;;;;;5034800;28;19921;-52
2022/10/06 08:51:14;;;;;;;;;;;19.80;1.00;;;;;;5034418;28;19921;-51
2022/10/06 08:53:45;;;;;;;;;;;19.90;1.00;;;;;;5033423;28;20008;-55
2022/10/06 08:56:16;;;;;;;;;;;19.90;1.00;;;;;;5033566;28;19920;-54
2022/10/06 08:58:54;;;;;;;;;;;19.90;1.00;;;;;;5034253;28;19932;-53
2022/10/06 09:01:26;;;;;;;;;;;20.00;1.00;;;;;;5034286;28;19921;-52
2022/10/06 09:03:55;;;;;;;;;;;20.00;1.00;;;;;;5033788;28;20028;-52
2022/10/06 09:06:32;;;;;;;;;;;20.00;1.00;;;;;;5034383;28;19921;-50
2022/10/06 09:09:04;;;;;;;;;;;20.00;1.00;;;;;;5034182;28;20437;-58
2022/10/06 09:11:42;;;;;;;;;;;20.10;1.00;;;;;;5034116;28;19925;-56
2022/10/06 09:14:20;;;;;;;;;;;20.10;1.00;;;;;;5034023;28;19928;-52
2022/10/06 09:16:49;;;;;;;;;;;20.10;1.00;;;;;;5034310;28;19968;-54
2022/10/06 09:19:22;;;;;;;;;;;20.20;1.00;;;;;;5033863;28;19925;-54
2022/10/06 09:21:51;;;;;;;;;;;20.20;1.00;;;;;;5032257;28;19944;-52
2022/10/06 09:24:36;;;;;;;;;;;20.20;1.00;;;;;;5033706;28;19974;-54
2022/10/06 09:27:17;;;;;;;;;;;20.30;1.00;;;;;;5033728;28;19924;-51
2022/10/06 09:29:47;;;;;;;;;;;20.30;1.00;;;;;;5033824;28;20375;-50
2022/10/06 09:32:15;;;;;;;;;;;20.30;1.00;;;;;;5033418;28;19925;-57
2022/10/06 09:34:49;;;;;;;;;;;20.30;1.00;;;;;;5034025;28;19921;-50
2022/10/06 09:37:16;;;;;;;;;;;20.30;1.00;;;;;;5033704;28;19988;-56
2022/10/06 09:39:46;;;;;;;;;;;20.40;1.00;;;;;;5033539;28;19931;-52
2022/10/06 09:42:25;;;;;;;;;;;20.40;1.00;;;;;;5033461;28;19932;-52
2022/10/06 09:44:52;;;;;;;;;;;20.40;1.00;;;;;;5033138;28;20389;-52
2022/10/06 09:47:34;;;;;;;;;;;20.40;1.00;;;;;;5033584;28;20425;-58
2022/10/06 09:50:11;;;;;;;;;;;20.40;1.00;;;;;;5033587;28;19921;-52
2022/10/06 09:52:38;;;;;;;;;;;20.50;1.00;;;;;;5033410;28;20371;-58
2022/10/06 09:55:10;;;;;;;;;;;20.50;1.00;;;;;;5033247;28;19924;-54
2022/10/06 09:57:37;;;;;;;;;;;20.50;1.00;;;;;;5033463;28;19921;-54
2022/10/06 10:00:25;;;;;;;;;;;20.50;1.00;;;;;;5033370;28;19925;-50
2022/10/06 10:03:12;;;;;;;;;;;20.50;1.00;;;;;;5033388;28;20448;-56
2022/10/06 10:05:45;;;;;;;;;;;20.50;1.00;;;;;;5033979;28;19983;-52
2022/10/06 10:08:11;;;;;;;;;;;20.50;1.00;;;;;;5037570;28;20329;-50
2022/10/06 10:10:39;;;;;;;;;;;20.50;1.00;;;;;;5037341;28;19921;-53
2022/10/06 10:13:20;;;;;;;;;;;20.60;1.00;;;;;;5037685;28;19921;-50
2022/10/06 10:15:52;;;;;;;;;;;20.60;1.00;;;;;;5035907;28;19921;-53
2022/10/06 10:18:25;;;;;;;;;;;20.60;1.00;;;;;;5037286;28;19921;-49
2022/10/06 10:20:56;;;;;;;;;;;20.60;1.00;;;;;;5037764;28;20373;-51
2022/10/06 10:23:28;;;;;;;;;;;20.60;1.00;;;;;;5037391;28;19927;-55
2022/10/06 10:25:57;;;;;;;;;;;20.60;1.00;;;;;;5037210;28;20377;-55
2022/10/06 10:28:27;;;;;;;;;;;20.60;1.00;;;;;;5037260;28;19960;-54
2022/10/06 10:31:12;;;;;;;;;;;20.60;1.00;;;;;;5036932;28;20336;-54
2022/10/06 10:33:58;;;;;;;;;;;20.60;1.00;;;;;;5036533;28;20314;-52
2022/10/06 10:36:42;;;;;;;;;;;20.60;1.00;;;;;;5036979;28;19925;-53
2022/10/06 10:39:12;;;;;;;;;;;20.60;1.00;;;;;;5036944;28;19929;-52
2022/10/06 10:41:45;;;;;;;;;;;20.60;1.00;;;;;;5036837;28;19975;-55
2022/10/06 10:44:30;;;;;;;;;;;20.60;1.00;;;;;;5037020;28;19928;-50
2022/10/06 10:47:12;;;;;;;;;;;20.60;1.00;;;;;;5037107;28;19921;-55
2022/10/06 10:49:42;;;;;;;;;;;20.60;1.00;;;;;;5037099;28;20371;-57
2022/10/06 10:52:12;;;;;;;;;;;20.60;1.00;;;;;;5036303;28;19921;-55
2022/10/06 10:54:46;;;;;;;;;;;20.60;1.00;;;;;;5036538;28;19967;-52
2022/10/06 10:57:18;;;;;;;;;;;20.60;1.00;;;;;;5036320;28;20374;-53
2022/10/06 10:59:48;;;;;;;;;;;20.60;1.00;;;;;;5036777;28;19925;-58
2022/10/06 11:02:17;;;;;;;;;;;20.60;1.00;;;;;;5036393;28;19921;-58
2022/10/06 11:04:48;;;;;;;;;;;20.60;1.00;;;;;;5036347;28;19925;-55
2022/10/06 11:07:20;;;;;;;;;;;20.60;1.00;;;;;;5036333;28;19944;-57
2022/10/06 11:09:49;;;;;;;;;;;20.60;1.00;;;;;;5036304;28;19936;-52
2022/10/06 11:12:25;;;;;;;;;;;20.60;1.00;;;;;;5036361;28;19925;-56
2022/10/06 11:15:00;;;;;;;;;;;20.60;1.00;;;;;;5036287;28;19967;-51
2022/10/06 11:17:42;;;;;;;;;;;20.60;1.00;;;;;;5035851;28;19921;-56
2022/10/06 11:20:15;;;;;;;;;;;20.60;1.00;;;;;;5036569;28;20003;-58
2022/10/06 11:22:50;;;;;;;;;;;20.60;1.00;;;;;;5035797;28;20363;-53
2022/10/06 11:25:33;;;;;;;;;;;20.60;1.00;;;;;;5036146;28;19921;-56
2022/10/06 11:28:06;;;;;;;;;;;20.60;1.00;;;;;;5036121;28;20315;-54
2022/10/06 11:30:36;;;;;;;;;;;20.60;1.00;;;;;;5036122;28;19928;-55
2022/10/06 11:33:16;;;;;;;;;;;20.60;1.00;;;;;;5035637;28;19924;-53
2022/10/06 11:35:44;;;;;;;;;;;20.60;1.00;;;;;;5035979;28;19921;-58
2022/10/06 11:38:15;;;;;;;;;;;20.70;1.00;;;;;;5035769;28;19920;-54
2022/10/06 11:40:42;;;;;;;;;;;20.70;1.00;;;;;;5035825;28;19928;-48
2022/10/06 11:43:09;;;;;;;;;;;20.60;1.00;;;;;;5035258;28;20386;-56
2022/10/06 11:45:49;;;;;;;;;;;20.60;1.00;;;;;;5035638;28;20291;-58
2022/10/06 11:48:22;;;;;;;;;;;20.60;1.00;;;;;;5036165;28;19920;-48
2022/10/06 11:50:51;;;;;;;;;;;20.50;1.00;;;;;;5035303;28;19951;-53
2022/10/06 11:53:30;;;;;;;;;;;20.50;1.00;;;;;;5035072;28;20332;-55
2022/10/06 11:56:15;;;;;;;;;;;20.50;1.00;;;;;;5035293;28;19925;-52
2022/10/06 11:58:51;;;;;;;;;;;20.50;1.00;;;;;;5035496;28;19921;-55
2022/10/06 12:01:31;;;;;;;;;;;20.50;1.00;;;;;;5035786;28;20417;-59
2022/10/06 12:04:07;;;;;;;;;;;20.50;1.00;;;;;;5034513;28;20298;-56
2022/10/06 12:06:46;;;;;;;;;;;20.50;1.00;;;;;;5035136;28;19921;-56
2022/10/06 12:09:24;;;;;;;;;;;20.50;1.00;;;;;;5035469;28;19921;-55
2022/10/06 12:11:52;;;;;;;;;;;20.40;1.00;;;;;;5034930;28;19932;-57
2022/10/06 12:14:26;;;;;;;;;;;20.40;1.00;;;;;;5034951;28;19921;-59
2022/10/06 12:17:15;;;;;;;;;;;20.40;1.00;;;;;;5034108;28;19921;-54
2022/10/06 12:19:48;;;;;;;;;;;20.40;1.00;;;;;;5035014;28;19925;-53
2022/10/06 12:22:21;;;;;;;;;;;20.40;1.00;;;;;;5034936;28;19995;-49
2022/10/06 12:25:02;;;;;;;;;;;20.40;1.00;;;;;;5034969;28;19921;-52
2022/10/06 12:27:38;;;;;;;;;;;20.40;1.00;;;;;;5035026;28;20347;-55
2022/10/06 12:30:26;;;;;;;;;;;20.40;1.00;;;;;;5033721;28;19931;-50
2022/10/06 12:32:54;;;;;;;;;;;20.40;1.00;;;;;;5014117;28;19921;-53
2022/10/06 12:35:24;;;;;;;;;;;20.40;1.00;;;;;;5034403;28;19951;-54
2022/10/06 12:37:51;;;;;;;;;;;20.40;1.00;;;;;;5034407;28;19928;-57
2022/10/06 12:40:39;;;;;;;;;;;20.40;1.00;;;;;;5033266;28;20295;-54
2022/10/06 12:43:17;;;;;;;;;;;20.40;1.00;;;;;;5034700;28;19921;-56
2022/10/06 12:45:53;;;;;;;;;;;20.40;1.00;;;;;;5034340;28;20414;-54
2022/10/06 12:48:25;;;;;;;;;;;20.40;1.00;;;;;;5034694;28;19921;-54
2022/10/06 12:50:56;;;;;;;;;;;20.30;1.00;;;;;;5034172;28;20286;-53
2022/10/06 12:53:27;;;;;;;;;;;20.40;1.00;;;;;;5033908;28;20438;-49
2022/10/06 12:55:58;;;;;;;;;;;20.30;1.00;;;;;;5034302;28;19921;-51
2022/10/06 12:58:27;;;;;;;;;;;20.30;1.00;;;;;;5033867;28;20344;-53
2022/10/06 13:01:01;;;;;;;;;;;20.40;1.00;;;;;;5034343;28;19982;-49
2022/10/06 13:03:28;;;;;;;;;;;20.30;1.00;;;;;;5034164;28;19921;-57
2022/10/06 13:05:56;;;;;;;;;;;20.30;1.00;;;;;;5034119;28;19929;-49
2022/10/06 13:08:24;;;;;;;;;;;20.30;1.00;;;;;;5034086;28;20322;-53
2022/10/06 13:11:10;;;;;;;;;;;20.30;1.00;;;;;;5034138;28;20283;-56
2022/10/06 13:13:37;;;;;;;;;;;20.40;1.00;;;;;;5033582;28;20378;-54
2022/10/06 13:16:06;;;;;;;;;;;20.30;1.00;;;;;;5034268;28;19925;-53
2022/10/06 13:18:33;;;;;;;;;;;20.30;1.00;;;;;;5033925;28;20334;-55
2022/10/06 13:21:00;;;;;;;;;;;20.30;1.00;;;;;;5033751;28;20306;-57
2022/10/06 13:23:28;;;;;;;;;;;20.30;1.00;;;;;;5033494;28;19997;-57
2022/10/06 13:26:03;;;;;;;;;;;20.30;1.00;;;;;;5033596;28;19921;-56
2022/10/06 13:28:35;;;;;;;;;;;20.30;1.00;;;;;;5033751;28;19953;-56
2022/10/06 13:31:15;;;;;;;;;;;20.30;1.00;;;;;;5034158;28;20357;-50
2022/10/06 13:33:43;;;;;;;;;;;20.30;1.00;;;;;;5033413;28;19967;-52
2022/10/06 13:36:11;;;;;;;;;;;20.30;1.00;;;;;;5033567;28;19925;-52
2022/10/06 13:38:38;;;;;;;;;;;20.30;1.00;;;;;;5033505;28;19921;-54
2022/10/06 13:41:24;;;;;;;;;;;20.30;1.00;;;;;;5033167;28;19925;-53
2022/10/06 13:43:57;;;;;;;;;;;20.30;1.00;;;;;;5033553;28;19920;-51
2022/10/06 13:46:25;;;;;;;;;;;20.30;1.00;;;;;;5033438;28;20386;-56
2022/10/06 13:49:03;;;;;;;;;;;20.30;1.00;;;;;;5033628;28;19921;-56
2022/10/06 13:51:30;;;;;;;;;;;20.30;1.00;;;;;;5033465;28;19951;-58
2022/10/06 13:53:58;;;;;;;;;;;20.30;1.00;;;;;;5032025;28;20344;-57
2022/10/06 13:56:26;;;;;;;;;;;20.30;1.00;;;;;;5033460;28;19929;-51
2022/10/06 13:59:16;;;;;;;;;;;20.40;1.00;;;;;;5033420;28;19921;-54
2022/10/06 14:01:43;;;;;;;;;;;20.40;1.00;;;;;;5033194;28;20355;-54
2022/10/06 14:04:11;;;;;;;;;;;20.40;1.00;;;;;;5033688;28;19968;-53
2022/10/06 14:06:44;;;;;;;;;;;20.40;1.00;;;;;;5033707;28;19920;-53
2022/10/06 14:09:14;;;;;;;;;;;20.40;1.00;;;;;;5033337;28;19979;-56
2022/10/06 14:11:40;;;;;;;;;;;20.40;1.00;;;;;;5033011;28;19939;-54
2022/10/06 14:14:13;;;;;;;;;;;20.40;1.00;;;;;;5033311;28;19927;-59
2022/10/06 14:16:45;;;;;;;;;;;20.40;1.00;;;;;;5033061;28;19928;-56
2022/10/06 14:19:31;;;;;;;;;;;20.40;1.00;;;;;;5033375;28;19921;-51
2022/10/06 14:21:58;;;;;;;;;;;20.40;1.00;;;;;;5033052;28;19925;-51
2022/10/06 14:24:27;;;;;;;;;;;20.50;1.00;;;;;;5033154;28;19971;-53
2022/10/06 14:26:58;;;;;;;;;;;20.50;1.00;;;;;;5033313;28;19921;-52
2022/10/06 14:29:25;;;;;;;;;;;20.50;1.00;;;;;;5033279;28;19925;-56
2022/10/06 14:31:52;;;;;;;;;;;20.50;1.00;;;;;;5033074;28;19921;-56
2022/10/06 14:34:19;;;;;;;;;;;20.50;1.00;;;;;;5033033;28;20337;-54
2022/10/06 14:36:50;;;;;;;;;;;20.50;1.00;;;;;;5032970;28;19943;-50
2022/10/06 14:39:17;;;;;;;;;;;20.50;1.00;;;;;;5033080;28;19964;-54
2022/10/06 14:41:44;;;;;;;;;;;20.60;1.00;;;;;;5032941;28;19929;-57
2022/10/06 14:44:13;;;;;;;;;;;20.60;1.00;;;;;;5033407;28;19921;-56
2022/10/06 14:46:41;;;;;;;;;;;20.60;1.00;;;;;;5033037;28;20402;-52
2022/10/06 14:49:12;;;;;;;;;;;20.60;1.00;;;;;;5033411;28;20019;-54
2022/10/06 14:51:39;;;;;;;;;;;20.60;1.00;;;;;;5032975;28;19928;-52
2022/10/06 14:54:07;;;;;;;;;;;20.60;1.00;;;;;;5035529;28;19992;-53
2022/10/06 14:56:35;;;;;;;;;;;20.60;1.00;;;;;;5036826;28;19943;-57
2022/10/06 14:59:04;;;;;;;;;;;20.70;1.00;;;;;;5037288;28;19971;-53